Dayton, IN

12:21 AM EST on January 29, 2015 (GMT -0500)
Logansport Municipal | Change Station
CLOSE
Current Station
Airport
Location: Logansport,
Elevation: 738 ft
Nearby Weather Stations

Elev 738 ft 40.71 °N, 86.37 °W | Updated 26 minutes ago

Mostly Cloudy
Mostly Cloudy
32 °F
Feels Like 22 °F
N
15
Wind Variable Wind from SSE
Gusts 20 mph

Today
High -- | Low -- °F
--% Chance of Precip.
Yesterday
High -- | Low -- °F
Precip. -- in
7:59 AM 6:01 PM
Waxing Gibbous, 71% visible
Pressure 29.98 in
Visibility 10.0 miles
Clouds Clear
Windchill 22 °F
Dew Point 23 °F
Humidity 69%
Rainfall 0.00 in
Snow Depth Not available.
UV 0 out of 12
Pollen .10 out of 12
Air Quality Not available.
Flu Activity Not available.
METAR KGGP 290455Z AUTO 16013G17KT 10SM CLR 00/M05 A2998 RMK AO2

More Conditions Fewer Conditions

Pressure 29.98 in
Visibility 10.0 miles
Clouds Clear
Windchill 22 °F
Dew Point 23 °F
Humidity 69%
Rainfall 0.00 in
Snow Depth Not available.
UV 0 out of 12
Pollen .10 out of 12
Air Quality Not available.
Flu Activity Not available.
METAR KGGP 290455Z AUTO 16013G17KT 10SM CLR 00/M05 A2998 RMK AO2

More Conditions Fewer Conditions

10-Day Weather Forecast

Almanac

Astronomy

Jan. 29, 2015 Rise Set
Actual Time
Civil Twilight
Nautical Twilight
Astronomical Twilight
Moon
Length of Visible Light
Length of Day
Tomorrow will be .
, % of the Moon is Illuminated

Today's Extremes

State Highs State Lows

Community

WunderPhotos

Upload Photos

1,791,359 photos uploaded!

WunderBlogs® & News

Nearby

Air Quality

  Air Quality AQ Index Pollutant
Not available.

Snow Depth

Station Depth Elevation

Earthquake Activity

City Distance Mag. Time & Date
Minimum magnitude displayed is 2.5.

Coastal Water Temperatures

Place Temperature

Nearby Weather Stations